TimeEDT,TemperatureF,Dew PointF,Humidity,Sea Level PressureIn,VisibilityMPH,Wind Direction,Wind SpeedMPH,Gust SpeedMPH,PrecipitationIn,Events,Conditions,WindDirDegrees,DateUTC
12:52 AM,77.0,73.9,90,30.01,10.0,SE,4.6,-,N/A,,Mostly Cloudy,140,2013-08-09 04:52:00
1:52 AM,75.9,73.9,94,30.01,8.0,SE,3.5,-,N/A,,Mostly Cloudy,130,2013-08-09 05:52:00
2:52 AM,75.9,73.9,94,30.02,8.0,Calm,Calm,-,N/A,,Mostly Cloudy,0,2013-08-09 06:52:00
3:52 AM,75.9,73.0,91,30.02,8.0,Calm,Calm,-,N/A,,Mostly Cloudy,0,2013-08-09 07:52:00
4:52 AM,75.0,73.0,94,30.03,7.0,Calm,Calm,-,N/A,,Mostly Cloudy,0,2013-08-09 08:52:00
5:52 AM,73.9,73.0,97,30.03,7.0,Calm,Calm,-,N/A,,Scattered Clouds,0,2013-08-09 09:52:00
6:52 AM,73.9,73.0,97,30.04,6.0,Calm,Calm,-,N/A,,Scattered Clouds,0,2013-08-09 10:52:00
7:37 AM,73.4,73.4,100,30.09,6.0,Calm,Calm,-,N/A,,Mostly Cloudy,0,2013-08-09 11:37:00
7:52 AM,75.0,73.0,94,30.06,6.0,Calm,Calm,-,N/A,,Mostly Cloudy,0,2013-08-09 11:52:00
8:52 AM,75.9,73.0,91,30.08,7.0,SSW,5.8,-,N/A,,Mostly Cloudy,210,2013-08-09 12:52:00
9:52 AM,80.1,73.9,81,30.08,10.0,SW,5.8,-,N/A,,Mostly Cloudy,230,2013-08-09 13:52:00
10:52 AM,81.0,73.0,77,30.09,10.0,SSW,6.9,-,N/A,,Mostly Cloudy,200,2013-08-09 14:52:00
11:52 AM,82.9,72.0,69,30.09,10.0,SSW,5.8,-,N/A,,Mostly Cloudy,210,2013-08-09 15:52:00
12:52 PM,84.0,72.0,67,30.08,10.0,SW,5.8,-,N/A,,Mostly Cloudy,220,2013-08-09 16:52:00
1:52 PM,86.0,72.0,63,30.07,10.0,SSW,9.2,-,N/A,,Mostly Cloudy,210,2013-08-09 17:52:00
2:52 PM,87.1,70.0,57,30.05,10.0,SSW,10.4,-,N/A,,Mostly Cloudy,210,2013-08-09 18:52:00
3:52 PM,88.0,71.1,57,30.03,10.0,South,6.9,-,N/A,,Mostly Cloudy,170,2013-08-09 19:52:00
4:52 PM,88.0,70.0,55,30.02,10.0,SW,8.1,-,N/A,,Mostly Cloudy,220,2013-08-09 20:52:00
5:52 PM,88.0,71.1,57,30.02,10.0,WSW,3.5,-,N/A,,Scattered Clouds,240,2013-08-09 21:52:00
6:52 PM,87.1,71.1,59,30.02,10.0,South,9.2,-,N/A,,Scattered Clouds,180,2013-08-09 22:52:00
7:52 PM,84.9,72.0,65,30.03,10.0,South,3.5,-,N/A,,Mostly Cloudy,190,2013-08-09 23:52:00
8:52 PM,81.0,72.0,74,30.06,10.0,South,8.1,-,N/A,,Scattered Clouds,190,2013-08-10 00:52:00
9:52 PM,79.0,72.0,79,30.07,10.0,SSW,8.1,-,N/A,,Scattered Clouds,210,2013-08-10 01:52:00
10:52 PM,78.1,72.0,81,30.09,10.0,SSW,6.9,-,N/A,,Mostly Cloudy,210,2013-08-10 02:52:00
11:52 PM,77.0,71.1,82,30.09,10.0,South,4.6,-,N/A,,Scattered Clouds,190,2013-08-10 03:52:00